createdAt,value
2022-09-19T00:02:12.051Z,7.9
2022-09-19T00:04:28.774Z,6.9
2022-09-19T00:06:46.166Z,7.1
2022-09-19T00:09:03.560Z,7.4
2022-09-19T00:11:20.443Z,7.6
2022-09-19T00:13:37.742Z,7.9
2022-09-19T00:15:54.861Z,7.3
2022-09-19T00:18:12.100Z,7.3
2022-09-19T00:20:29.102Z,8
2022-09-19T00:22:46.244Z,7.9
2022-09-19T00:25:02.685Z,7.5
2022-09-19T00:27:18.901Z,3.8
2022-09-19T00:29:35.823Z,3.8
2022-09-19T00:31:52.893Z,7.6
2022-09-19T00:34:10.195Z,8
2022-09-19T00:36:26.765Z,8.2
2022-09-19T00:38:44.417Z,7.4
2022-09-19T00:41:01.917Z,7.7
2022-09-19T00:43:18.908Z,7.3
2022-09-19T00:45:36.023Z,7.1
2022-09-19T00:47:52.913Z,7.2
2022-09-19T00:50:10.279Z,7
2022-09-19T00:52:26.856Z,7.4
2022-09-19T00:54:44.690Z,7.1
2022-09-19T00:57:01.944Z,7.3
2022-09-19T00:59:19.137Z,7.8
2022-09-19T01:01:36.212Z,7.5
2022-09-19T01:03:53.519Z,7.9
2022-09-19T01:06:10.615Z,6.6
2022-09-19T01:08:27.840Z,7.3
2022-09-19T01:10:44.856Z,7.3
2022-09-19T01:13:02.033Z,7.4
2022-09-19T01:15:19.280Z,7.2
2022-09-19T01:17:35.654Z,7.5
2022-09-19T01:19:52.531Z,3.6
2022-09-19T01:22:09.543Z,7.1
2022-09-19T01:24:26.874Z,8.5
2022-09-19T01:26:44.341Z,7.4
2022-09-19T01:29:01.426Z,6.9
2022-09-19T01:31:18.509Z,7.2
2022-09-19T01:33:35.597Z,8
2022-09-19T01:35:52.938Z,7.6
2022-09-19T01:38:10.093Z,8.2
2022-09-19T01:40:26.265Z,7.5
2022-09-19T01:42:43.427Z,3.6
2022-09-19T01:45:00.405Z,7.3
2022-09-19T01:47:16.920Z,3.9
2022-09-19T01:49:33.843Z,7.3
2022-09-19T01:51:51.002Z,7.8
2022-09-19T01:54:07.888Z,7.7
2022-09-19T01:56:25.244Z,7.6
2022-09-19T01:58:42.400Z,8.4
2022-09-19T02:01:00.529Z,7.9
2022-09-19T02:03:17.351Z,7.4
2022-09-19T02:05:34.136Z,8.1
2022-09-19T02:07:50.764Z,3.4
2022-09-19T02:10:07.797Z,3.7
2022-09-19T02:12:24.036Z,3.6
2022-09-19T02:14:41.671Z,3.7
2022-09-19T02:16:58.506Z,7
2022-09-19T02:19:15.294Z,3.6
2022-09-19T02:21:32.485Z,3.4
2022-09-19T02:23:49.312Z,7.8
2022-09-19T02:26:06.206Z,7.1
2022-09-19T02:28:22.558Z,7.1
2022-09-19T02:30:40.287Z,8.2
2022-09-19T02:32:57.341Z,7.1
2022-09-19T02:35:14.329Z,6.9
2022-09-19T02:37:31.317Z,7.6
2022-09-19T02:39:48.309Z,6.6
2022-09-19T02:42:05.366Z,7.2
2022-09-19T02:44:22.160Z,7.3
2022-09-19T02:46:39.085Z,3.1
2022-09-19T02:48:55.878Z,6.8
2022-09-19T02:51:12.761Z,6.1
2022-09-19T02:53:29.617Z,6
2022-09-19T02:55:46.689Z,7
2022-09-19T02:58:03.736Z,6.9
2022-09-19T03:01:54.492Z,7.1
2022-09-19T03:04:11.721Z,6.4
2022-09-19T03:06:28.835Z,6.9
2022-09-19T03:08:45.912Z,6.8
2022-09-19T03:11:03.259Z,6.9
2022-09-19T03:13:20.343Z,6.8
2022-09-19T03:15:37.321Z,6.6
2022-09-19T03:17:54.376Z,7.3
2022-09-19T03:20:11.598Z,7.5
2022-09-19T03:22:28.561Z,7.3
2022-09-19T03:24:45.726Z,6.8
2022-09-19T03:27:02.502Z,6.9
2022-09-19T03:29:19.213Z,2.9
2022-09-19T03:31:36.252Z,3.1
2022-09-19T03:33:53.245Z,6.5
2022-09-19T03:36:10.488Z,6.2
2022-09-19T03:38:27.258Z,6.4
2022-09-19T03:40:44.365Z,6.6
2022-09-19T03:43:01.245Z,7.3
2022-09-19T03:45:17.987Z,6.6
2022-09-19T03:47:34.267Z,6.4
2022-09-19T03:49:51.687Z,3
2022-09-19T03:52:08.582Z,6.4
2022-09-19T03:54:25.495Z,6.7
2022-09-19T03:56:42.137Z,6.1
2022-09-19T03:58:59.176Z,6.8
2022-09-19T04:01:19.093Z,6
2022-09-19T04:03:32.554Z,6.4
2022-09-19T04:05:49.364Z,6.1
2022-09-19T04:08:05.732Z,6
2022-09-19T04:10:22.942Z,5.9
2022-09-19T04:12:39.762Z,3.2
2022-09-19T04:14:56.855Z,3.2
2022-09-19T04:17:23.730Z,6.3
2022-09-19T04:19:41.034Z,6.3
2022-09-19T04:21:57.754Z,6.6
2022-09-19T04:24:14.740Z,5.7
2022-09-19T04:26:31.552Z,6.6
2022-09-19T04:28:47.816Z,6.3
2022-09-19T04:31:05.344Z,3.8
2022-09-19T04:33:22.366Z,6.6
2022-09-19T04:35:39.465Z,6.7
2022-09-19T04:37:56.246Z,6.4
2022-09-19T04:40:13.318Z,6.8
2022-09-19T04:42:30.148Z,3.9
2022-09-19T04:44:47.440Z,7.3
2022-09-19T04:47:04.226Z,7.3
2022-09-19T04:49:21.168Z,6.4
2022-09-19T04:51:38.097Z,7.1
2022-09-19T04:53:55.140Z,6.6
2022-09-19T04:56:12.198Z,6.2
2022-09-19T04:58:28.866Z,7.8
2022-09-19T05:00:45.922Z,4.5
2022-09-19T05:03:02.895Z,7.9
2022-09-19T05:05:20.008Z,8.4
2022-09-19T05:07:36.944Z,9.6
2022-09-19T05:09:53.843Z,9.1
2022-09-19T05:12:10.989Z,9.1
2022-09-19T05:14:28.003Z,9.6
2022-09-19T05:16:44.890Z,9.6
2022-09-19T05:19:01.157Z,9.8
2022-09-19T05:21:18.763Z,6.8
2022-09-19T05:23:35.837Z,10.1
2022-09-19T05:25:52.865Z,9.9
2022-09-19T05:28:10.180Z,10.3
2022-09-19T05:30:27.150Z,10.6
2022-09-19T05:32:44.166Z,10.4
2022-09-19T05:35:01.338Z,11
2022-09-19T05:37:18.184Z,7.8
2022-09-19T05:39:35.138Z,10.9
2022-09-19T05:41:52.468Z,11.5
2022-09-19T05:44:10.046Z,11.2
2022-09-19T05:46:30.682Z,11.8
2022-09-19T05:48:44.108Z,8.8
2022-09-19T05:51:01.559Z,12.4
2022-09-19T05:53:18.861Z,11.6
2022-09-19T05:55:36.208Z,13.2
2022-09-19T05:57:53.145Z,12.6
2022-09-19T06:00:10.609Z,9.6
2022-09-19T06:02:27.919Z,13.1
2022-09-19T06:04:45.175Z,12.9
2022-09-19T06:07:02.624Z,13.3
2022-09-19T06:09:19.954Z,14
2022-09-19T06:11:36.899Z,14.2
2022-09-19T06:13:54.478Z,10.2
2022-09-19T06:16:11.909Z,13.8
2022-09-19T06:18:27.953Z,14.6
2022-09-19T06:20:45.730Z,10.1
2022-09-19T06:23:03.063Z,13.8
2022-09-19T06:25:20.479Z,14.4
2022-09-19T06:27:37.888Z,14.7
2022-09-19T06:29:55.281Z,14.8
2022-09-19T06:32:12.497Z,14.6
2022-09-19T06:34:42.798Z,14.7
2022-09-19T06:36:57.802Z,15.9
2022-09-19T06:39:15.102Z,12.1
2022-09-19T06:41:32.606Z,15.5
2022-09-19T06:43:49.457Z,16.9
2022-09-19T06:46:06.595Z,12.9
2022-09-19T06:48:24.041Z,16.4
2022-09-19T06:50:41.300Z,17.7
2022-09-19T06:52:58.077Z,17.2
2022-09-19T06:55:15.092Z,15
2022-09-19T06:57:32.251Z,14.3
2022-09-19T06:59:49.591Z,18.8
2022-09-19T07:02:06.993Z,19.5
2022-09-19T07:04:24.437Z,20.6
2022-09-19T07:06:44.772Z,20.1
2022-09-19T07:08:58.722Z,20.8
2022-09-19T07:11:15.985Z,19.7
2022-09-19T07:13:33.252Z,19.3
2022-09-19T07:15:50.497Z,20.8
2022-09-19T07:18:07.913Z,19.8
2022-09-19T07:20:24.695Z,20.9
2022-09-19T07:22:45.538Z,20.7
2022-09-19T07:24:59.096Z,17.1
2022-09-19T07:27:16.239Z,21.3
2022-09-19T07:29:33.331Z,18.3
2022-09-19T07:31:50.608Z,21.4
2022-09-19T07:34:07.480Z,20.9
2022-09-19T07:36:24.326Z,17.4
2022-09-19T07:38:41.482Z,17.7
2022-09-19T07:41:06.193Z,23.5
2022-09-19T07:43:23.181Z,24.4
2022-09-19T07:45:40.328Z,25.4
2022-09-19T07:47:57.169Z,25.9
2022-09-19T07:50:14.284Z,25.4
2022-09-19T07:52:31.227Z,25.6
2022-09-19T07:54:48.166Z,25.4
2022-09-19T07:57:05.081Z,25.4
2022-09-19T07:59:21.872Z,24.6
2022-09-19T08:01:38.505Z,20.6
2022-09-19T08:03:55.255Z,19.8
2022-09-19T08:06:11.495Z,21.1
2022-09-19T08:08:29.196Z,20.4
2022-09-19T08:10:47.622Z,21.8
2022-09-19T08:13:03.190Z,22.7
2022-09-19T08:15:19.960Z,20.5
2022-09-19T08:17:36.429Z,22.4
2022-09-19T08:19:54.028Z,22.4
2022-09-19T08:22:11.016Z,20.6
2022-09-19T08:24:27.566Z,20.4
2022-09-19T08:26:45.027Z,22.9
2022-09-19T08:29:02.631Z,24
2022-09-19T08:31:19.117Z,24.4
2022-09-19T08:33:35.954Z,24
2022-09-19T08:35:52.965Z,25.3
2022-09-19T08:38:10.036Z,22.1
2022-09-19T08:40:27.154Z,24.7
2022-09-19T08:42:43.965Z,22.9
2022-09-19T08:45:00.901Z,21.9
2022-09-19T08:47:17.888Z,23.2
2022-09-19T08:49:34.777Z,22
2022-09-19T08:51:51.365Z,22.1
2022-09-19T08:54:08.848Z,25.3
2022-09-19T08:56:25.867Z,23.2
2022-09-19T08:58:42.943Z,24.6
2022-09-19T09:02:06.821Z,24.3
2022-09-19T09:04:41.695Z,21
2022-09-19T09:06:58.883Z,20.7
2022-09-19T09:09:15.909Z,23
2022-09-19T09:11:33.141Z,23.4
2022-09-19T09:14:00.707Z,23.4
2022-09-19T09:16:47.216Z,24.4
2022-09-19T09:19:05.767Z,26.7
2022-09-19T09:21:23.391Z,23.8
2022-09-19T09:23:38.439Z,26.5
2022-09-19T09:26:06.643Z,25.1
2022-09-19T09:28:23.985Z,23.8
2022-09-19T09:30:40.713Z,24
2022-09-19T09:32:57.590Z,25.6
2022-09-19T09:35:14.646Z,25
2022-09-19T09:37:30.981Z,23.3
2022-09-19T09:39:48.704Z,24.1
2022-09-19T09:42:05.506Z,21.3
2022-09-19T09:44:22.576Z,21.1
2022-09-19T09:46:39.384Z,23.4
2022-09-19T09:48:56.466Z,23.9
2022-09-19T09:51:13.369Z,24
2022-09-19T09:53:30.298Z,23.9
2022-09-19T09:55:47.480Z,20.8
2022-09-19T09:58:03.837Z,22.8
2022-09-19T10:00:21.410Z,24.8
2022-09-19T10:02:38.258Z,24.1
2022-09-19T10:04:55.101Z,22.8
2022-09-19T10:07:12.042Z,25.4
2022-09-19T10:09:29.054Z,23.4
2022-09-19T10:14:54.508Z,27.3
2022-09-19T10:17:11.537Z,22.9
2022-09-19T10:19:28.363Z,25.4
2022-09-19T10:21:45.298Z,24.9
2022-09-19T10:24:02.297Z,20.8
2022-09-19T10:26:19.212Z,24.9
2022-09-19T10:28:36.236Z,21.3
2022-09-19T10:30:53.134Z,20.1
2022-09-19T10:33:10.204Z,19.3
2022-09-19T10:35:27.118Z,19.6
2022-09-19T10:37:43.971Z,19.4
2022-09-19T10:40:01.085Z,19.3
2022-09-19T10:42:20.777Z,19.2
2022-09-19T10:44:34.762Z,20.3
2022-09-19T10:46:51.981Z,19.4
2022-09-19T10:49:08.756Z,20.3
2022-09-19T10:51:25.712Z,19.4
2022-09-19T10:53:53.628Z,22.3
2022-09-19T10:56:10.670Z,19.6
2022-09-19T10:58:28.035Z,17.8
2022-09-19T11:00:44.991Z,18.1
2022-09-19T11:03:01.910Z,18
2022-09-19T11:07:35.892Z,18.1
2022-09-19T11:09:52.821Z,18
2022-09-19T11:12:09.698Z,17.4
2022-09-19T11:14:26.593Z,17.4
2022-09-19T11:16:43.702Z,17.3
2022-09-19T11:19:00.388Z,17.3
2022-09-19T11:21:17.573Z,17.2
2022-09-19T11:23:34.458Z,17.1
2022-09-19T11:25:51.276Z,16.8
2022-09-19T11:30:25.134Z,16.4
2022-09-19T11:36:44.851Z,17.4
2022-09-19T11:39:53.578Z,16.4
2022-09-19T11:42:09.472Z,18.1
2022-09-19T11:44:28.215Z,16.5
2022-09-19T11:46:43.503Z,16.4
2022-09-19T11:49:00.229Z,16.5
2022-09-19T11:51:17.179Z,16.4
2022-09-19T11:53:34.078Z,16.4
2022-09-19T11:55:51.045Z,16.6
2022-09-19T11:58:07.914Z,16.6
2022-09-19T12:00:24.939Z,16
2022-09-19T12:02:41.948Z,16.3
2022-09-19T12:04:58.870Z,16.4
2022-09-19T12:07:15.773Z,16.7
2022-09-19T12:09:33.782Z,16.9
2022-09-19T12:11:49.965Z,16.6
2022-09-19T12:14:06.517Z,16.6
2022-09-19T12:16:25.932Z,16.4
2022-09-19T12:18:40.457Z,16.3
2022-09-19T12:20:57.463Z,16.3
2022-09-19T12:23:14.336Z,15.6
2022-09-19T12:25:30.650Z,15.5
2022-09-19T12:27:48.198Z,16.1
2022-09-19T12:30:05.217Z,15.6
2022-09-19T12:32:22.180Z,16.1
2022-09-19T12:34:40.500Z,15.9
2022-09-19T12:36:59.215Z,16.3
2022-09-19T12:39:12.772Z,16.3
2022-09-19T12:41:29.782Z,16.8
2022-09-19T12:43:46.655Z,16.1
2022-09-19T12:46:03.628Z,16.2
2022-09-19T12:48:24.506Z,15.9
2022-09-19T12:50:37.471Z,15.6
2022-09-19T12:52:54.364Z,15.6
2022-09-19T12:55:11.339Z,15.4
2022-09-19T12:57:28.227Z,15.5
2022-09-19T12:59:45.117Z,15.4
2022-09-19T13:02:02.322Z,16
2022-09-19T13:04:18.955Z,16.1
2022-09-19T13:06:35.954Z,16.3
2022-09-19T13:08:52.829Z,16.3
2022-09-19T13:11:09.135Z,16.1
2022-09-19T13:13:26.689Z,16.3
2022-09-19T13:15:43.619Z,16.5
2022-09-19T13:18:00.521Z,16.4
2022-09-19T13:20:17.419Z,15.8
2022-09-19T13:22:34.200Z,16.2
2022-09-19T13:24:51.203Z,15.9
2022-09-19T13:27:08.129Z,15.8
2022-09-19T13:29:25.018Z,15.9
2022-09-19T13:31:41.942Z,15.7
2022-09-19T13:33:58.977Z,15.9
2022-09-19T13:36:15.660Z,15.8
2022-09-19T13:38:32.636Z,15.9
2022-09-19T13:40:49.633Z,15.9
2022-09-19T13:43:06.432Z,15.6
2022-09-19T13:45:23.308Z,15.5
2022-09-19T13:47:40.249Z,15.8
2022-09-19T13:49:56.954Z,15.7
2022-09-19T13:52:13.914Z,15.6
2022-09-19T13:54:30.849Z,15.6
2022-09-19T13:56:47.875Z,15.6
2022-09-19T13:59:04.778Z,15.5
2022-09-19T14:01:21.763Z,15.3
2022-09-19T14:03:38.749Z,15.3
2022-09-19T14:05:57.303Z,15
2022-09-19T14:10:12.802Z,15.6
2022-09-19T14:12:26.256Z,15
2022-09-19T14:14:43.048Z,15.3
2022-09-19T14:17:00.137Z,14.9
2022-09-19T14:19:16.957Z,15.1
2022-09-19T14:21:33.897Z,14.9
2022-09-19T14:23:50.749Z,14.4
2022-09-19T14:26:07.693Z,14.8
2022-09-19T14:28:24.686Z,14.4
2022-09-19T14:30:41.428Z,14.8
2022-09-19T14:32:58.331Z,14.8
2022-09-19T14:35:15.235Z,14.9
2022-09-19T14:37:32.249Z,14.8
2022-09-19T14:39:49.010Z,14.6
2022-09-19T14:42:13.683Z,14.7
2022-09-19T14:44:30.848Z,14.6
2022-09-19T14:46:47.645Z,14.8
2022-09-19T14:49:04.493Z,19.8
2022-09-19T14:51:20.985Z,19.6
2022-09-19T14:53:37.603Z,14.9
2022-09-19T14:55:54.608Z,14.8
2022-09-19T14:58:11.123Z,14.9
2022-09-19T15:01:54.764Z,14.8
2022-09-19T15:04:11.633Z,14.5
2022-09-19T15:06:28.440Z,14.6
2022-09-19T15:08:45.288Z,14.7
2022-09-19T15:11:02.145Z,14.7
2022-09-19T15:13:18.974Z,14.4
2022-09-19T15:15:35.849Z,14.6
2022-09-19T15:17:52.636Z,14.5
2022-09-19T15:20:09.734Z,14.4
2022-09-19T15:22:26.377Z,14.1
2022-09-19T15:24:43.098Z,14.1
2022-09-19T15:26:59.891Z,14.4
2022-09-19T15:29:16.788Z,14.4
2022-09-19T15:31:33.784Z,14.4
2022-09-19T15:33:50.412Z,14.3
2022-09-19T15:36:07.558Z,14
2022-09-19T15:38:24.009Z,14.5
2022-09-19T15:40:40.966Z,13.9
2022-09-19T15:42:57.555Z,13.9
2022-09-19T15:45:14.464Z,13.9
2022-09-19T15:47:31.265Z,14.2
2022-09-19T15:49:47.829Z,13.9
2022-09-19T15:52:04.688Z,13.8
2022-09-19T15:54:21.566Z,13.8
2022-09-19T15:56:38.499Z,13.7
2022-09-19T15:58:55.302Z,18.5
2022-09-19T16:01:12.378Z,17.5
2022-09-19T16:03:29.006Z,19.6
2022-09-19T16:05:45.959Z,18.4
2022-09-19T16:08:02.103Z,18.1
2022-09-19T16:10:23.729Z,13.4
2022-09-19T16:12:41.928Z,17.6
2022-09-19T16:14:58.648Z,19
2022-09-19T16:17:15.500Z,18.2
2022-09-19T16:19:32.222Z,19.1
2022-09-19T16:21:48.500Z,19.3
2022-09-19T16:24:05.275Z,12.7
2022-09-19T16:26:21.948Z,16.8
2022-09-19T16:28:38.611Z,19.3
2022-09-19T16:30:54.736Z,18.1
2022-09-19T16:33:12.076Z,18.3
2022-09-19T16:35:28.738Z,18.3
2022-09-19T16:37:45.484Z,19
2022-09-19T16:40:02.346Z,19
2022-09-19T16:42:19.269Z,18.5
2022-09-19T16:44:36.264Z,15.7
2022-09-19T16:46:53.078Z,15.7
2022-09-19T16:49:10.164Z,15.9
2022-09-19T16:51:27.481Z,15.6
2022-09-19T16:53:43.623Z,15.7
2022-09-19T16:56:00.383Z,11.9
2022-09-19T16:58:17.522Z,15.8
2022-09-19T17:00:34.697Z,15.8
2022-09-19T17:02:51.690Z,15.1
2022-09-19T17:05:08.043Z,15.7
2022-09-19T17:07:24.285Z,11.8
2022-09-19T17:09:41.303Z,11.8
2022-09-19T17:11:58.449Z,15.4
2022-09-19T17:14:15.663Z,14.8
2022-09-19T17:16:32.807Z,15.3
2022-09-19T17:18:48.994Z,14.9
2022-09-19T17:21:05.980Z,11
2022-09-19T17:23:22.510Z,15.1
2022-09-19T17:25:38.867Z,11.3
2022-09-19T17:27:55.763Z,11.1
2022-09-19T17:30:12.458Z,15
2022-09-19T17:32:29.482Z,11.1
2022-09-19T17:34:46.520Z,15
2022-09-19T17:37:03.401Z,15.5
2022-09-19T17:39:19.563Z,10.8
2022-09-19T17:41:36.476Z,10.9
2022-09-19T17:43:53.182Z,15.1
2022-09-19T17:46:13.106Z,10.6
2022-09-19T17:48:31.930Z,14.3
2022-09-19T17:50:49.485Z,14.1
2022-09-19T17:53:06.163Z,14.2
2022-09-19T17:55:23.142Z,10.6
2022-09-19T17:57:40.037Z,14.4
2022-09-19T18:00:00.689Z,15
2022-09-19T18:02:14.531Z,14.3
2022-09-19T18:04:31.082Z,14.6
2022-09-19T18:06:47.897Z,9.5
2022-09-19T18:09:05.238Z,13.6
2022-09-19T18:11:22.240Z,13.7
2022-09-19T18:13:39.640Z,13.8
2022-09-19T18:15:56.629Z,13.9
2022-09-19T18:18:14.148Z,13.1
2022-09-19T18:20:30.966Z,13.8
2022-09-19T18:22:48.170Z,13.1
2022-09-19T18:25:05.269Z,13.5
2022-09-19T18:27:22.325Z,13.5
2022-09-19T18:29:39.516Z,13.5
2022-09-19T18:31:59.877Z,13.4
2022-09-19T18:34:13.849Z,13.4
2022-09-19T18:36:30.924Z,13.3
2022-09-19T18:38:48.207Z,12.9
2022-09-19T18:41:05.313Z,13.1
2022-09-19T18:43:22.347Z,12.8
2022-09-19T18:45:39.682Z,13.4
2022-09-19T18:47:56.721Z,12.9
2022-09-19T18:50:13.880Z,12.8
2022-09-19T18:52:31.027Z,12.7
2022-09-19T18:54:48.311Z,12.6
2022-09-19T18:57:05.390Z,12.9
2022-09-19T18:59:22.690Z,12.7
2022-09-19T19:01:39.867Z,13
2022-09-19T19:03:56.919Z,12.4
2022-09-19T19:06:20.705Z,12.3
2022-09-19T19:08:31.268Z,12.8
2022-09-19T19:10:48.308Z,12.1
2022-09-19T19:13:21.568Z,12.4
2022-09-19T19:15:38.685Z,12
2022-09-19T19:17:55.653Z,11.8
2022-09-19T19:20:12.967Z,12.1
2022-09-19T19:22:29.916Z,12.6
2022-09-19T19:24:46.833Z,11.9
2022-09-19T19:27:03.908Z,12.4
2022-09-19T19:29:20.931Z,11.8
2022-09-19T19:31:37.867Z,12.1
2022-09-19T19:33:55.085Z,12
2022-09-19T19:36:12.028Z,12.1
2022-09-19T19:38:29.030Z,11.4
2022-09-19T19:40:46.325Z,12.1
2022-09-19T19:43:03.382Z,11.5
2022-09-19T19:45:19.824Z,12
2022-09-19T19:47:36.656Z,7.3
2022-09-19T19:49:54.021Z,11.8
2022-09-19T19:52:11.062Z,11.6
2022-09-19T19:54:28.078Z,11.8
2022-09-19T19:56:45.340Z,11.7
2022-09-19T19:59:01.727Z,11.3
2022-09-19T20:01:18.890Z,7.3
2022-09-19T20:03:35.885Z,10
2022-09-19T20:05:53.186Z,11.4
2022-09-19T20:08:10.325Z,11.9
2022-09-19T20:10:26.950Z,11.6
2022-09-19T20:12:43.527Z,7.1
2022-09-19T20:15:00.926Z,11.3
2022-09-19T20:17:18.033Z,11.4
2022-09-19T20:19:35.270Z,12
2022-09-19T20:21:52.346Z,10.8
2022-09-19T20:24:09.351Z,11.5
2022-09-19T20:26:26.063Z,11.8
2022-09-19T20:28:42.723Z,6.9
2022-09-19T20:31:00.241Z,11
2022-09-19T20:33:16.980Z,11.6
2022-09-19T20:35:33.615Z,11.6
2022-09-19T20:37:50.365Z,7
2022-09-19T20:40:07.626Z,11.4
2022-09-19T20:42:24.775Z,11.8
2022-09-19T20:44:41.966Z,11.4
2022-09-19T20:46:59.174Z,11.5
2022-09-19T20:49:16.152Z,11.9
2022-09-19T20:51:33.443Z,11
2022-09-19T20:53:49.695Z,11.4
2022-09-19T20:56:06.097Z,7.1
2022-09-19T20:58:22.617Z,7.1
2022-09-19T21:01:54.780Z,12.1
2022-09-19T21:04:12.016Z,11.4
2022-09-19T21:06:29.082Z,11.6
2022-09-19T21:08:46.286Z,11.3
2022-09-19T21:11:03.327Z,11.9
2022-09-19T21:13:31.934Z,11.7
2022-09-19T21:15:48.570Z,7.3
2022-09-19T21:18:05.088Z,11.3
2022-09-19T21:20:21.971Z,7.1
2022-09-19T21:22:38.449Z,10.7
2022-09-19T21:24:55.298Z,7.3
2022-09-19T21:27:12.449Z,11
2022-09-19T21:29:28.837Z,11.1
2022-09-19T21:31:45.548Z,7.1
2022-09-19T21:34:02.577Z,11.2
2022-09-19T21:36:18.357Z,11.1
2022-09-19T21:38:35.772Z,7.1
2022-09-19T21:40:53.194Z,11.2
2022-09-19T21:43:10.012Z,10.9
2022-09-19T21:45:27.253Z,10.8
2022-09-19T21:47:44.208Z,11.3
2022-09-19T21:50:01.195Z,10.8
2022-09-19T21:52:18.616Z,10.9
2022-09-19T21:54:35.621Z,11.3
2022-09-19T21:56:52.916Z,10.6
2022-09-19T21:59:09.930Z,10.5
2022-09-19T22:01:27.237Z,10.5
2022-09-19T22:03:43.285Z,10.9
2022-09-19T22:05:59.926Z,6.4
2022-09-19T22:08:17.303Z,10.7
2022-09-19T22:10:34.345Z,10.6
2022-09-19T22:12:51.525Z,9.9
2022-09-19T22:15:08.601Z,10.8
2022-09-19T22:17:25.840Z,10.5
2022-09-19T22:19:42.792Z,10.4
2022-09-19T22:21:59.958Z,10.4
2022-09-19T22:24:16.963Z,11.1
2022-09-19T22:26:34.538Z,10.5
2022-09-19T22:28:51.283Z,10.1
2022-09-19T22:31:08.308Z,10
2022-09-19T22:33:25.562Z,10.6
2022-09-19T22:35:42.508Z,10.3
2022-09-19T22:37:59.003Z,10.4
2022-09-19T22:40:15.595Z,5.9
2022-09-19T22:42:32.932Z,10.3
2022-09-19T22:44:49.969Z,10.4
2022-09-19T22:47:07.231Z,10.1
2022-09-19T22:49:24.177Z,10.4
2022-09-19T22:51:41.173Z,10.1
2022-09-19T22:53:58.343Z,10.6
2022-09-19T22:56:15.434Z,10.9
2022-09-19T22:58:32.716Z,10.8
2022-09-19T23:00:49.717Z,10.4
2022-09-19T23:03:06.282Z,10.5
2022-09-19T23:05:22.739Z,6.1
2022-09-19T23:07:39.952Z,9.9
2022-09-19T23:09:57.048Z,10.8
2022-09-19T23:12:14.460Z,10.6
2022-09-19T23:14:31.322Z,10.4
2022-09-19T23:16:47.762Z,10.1
2022-09-19T23:19:05.759Z,10.1
2022-09-19T23:21:22.583Z,10.1
2022-09-19T23:23:39.768Z,10.3
2022-09-19T23:25:56.856Z,10.4
2022-09-19T23:28:14.109Z,10.4
2022-09-19T23:30:31.015Z,10.1
2022-09-19T23:32:49.011Z,10
2022-09-19T23:35:05.070Z,10
2022-09-19T23:37:22.065Z,9.9
2022-09-19T23:39:39.371Z,10.3
2022-09-19T23:41:56.362Z,10.3
2022-09-19T23:44:12.738Z,10.3
2022-09-19T23:46:29.285Z,5.9
2022-09-19T23:48:46.656Z,10.6
2022-09-19T23:51:03.696Z,10.2
2022-09-19T23:53:21.184Z,10.3
2022-09-19T23:55:37.870Z,10.1
2022-09-19T23:57:55.397Z,10.4
